地図

経路データ

SID SEASON NUMBER BASIN SUBBASIN NAME ISO_TIME NATURE LAT LON WMO_WIND WMO_PRES WMO_AGENCY TRACK_TYPE DIST2LAND LANDFALL IFLAG USA_AGENCY USA_ATCF_ID USA_LAT USA_LON USA_RECORD USA_STATUS USA_WIND USA_PRES USA_SSHS USA_R34_NE USA_R34_SE USA_R34_SW USA_R34_NW USA_R50_NE USA_R50_SE USA_R50_SW USA_R50_NW USA_R64_NE USA_R64_SE USA_R64_SW USA_R64_NW USA_POCI USA_ROCI USA_RMW USA_EYE TOKYO_LAT TOKYO_LON TOKYO_GRADE TOKYO_WIND TOKYO_PRES TOKYO_R50_DIR TOKYO_R50_LONG TOKYO_R50_SHORT TOKYO_R30_DIR TOKYO_R30_LONG TOKYO_R30_SHORT TOKYO_LAND CMA_LAT CMA_LON CMA_CAT CMA_WIND CMA_PRES HKO_LAT HKO_LON HKO_CAT HKO_WIND HKO_PRES NEWDELHI_LAT NEWDELHI_LON NEWDELHI_GRADE NEWDELHI_WIND NEWDELHI_PRES NEWDELHI_CI NEWDELHI_DP NEWDELHI_POCI REUNION_LAT REUNION_LON REUNION_TYPE REUNION_WIND REUNION_PRES REUNION_TNUM REUNION_CI REUNION_RMW REUNION_R34_NE REUNION_R34_SE REUNION_R34_SW REUNION_R34_NW REUNION_R50_NE REUNION_R50_SE REUNION_R50_SW REUNION_R50_NW REUNION_R64_NE REUNION_R64_SE REUNION_R64_SW REUNION_R64_NW BOM_LAT BOM_LON BOM_TYPE BOM_WIND BOM_PRES BOM_TNUM BOM_CI BOM_RMW BOM_R34_NE BOM_R34_SE BOM_R34_SW BOM_R34_NW BOM_R50_NE BOM_R50_SE BOM_R50_SW BOM_R50_NW BOM_R64_NE BOM_R64_SE BOM_R64_SW BOM_R64_NW BOM_ROCI BOM_POCI BOM_EYE BOM_POS_METHOD BOM_PRES_METHOD NADI_LAT NADI_LON NADI_CAT NADI_WIND NADI_PRES WELLINGTON_LAT WELLINGTON_LON WELLINGTON_WIND WELLINGTON_PRES DS824_LAT DS824_LON DS824_STAGE DS824_WIND DS824_PRES TD9636_LAT TD9636_LON TD9636_STAGE TD9636_WIND TD9636_PRES TD9635_LAT TD9635_LON TD9635_WIND TD9635_PRES TD9635_ROCI NEUMANN_LAT NEUMANN_LON NEUMANN_CLASS NEUMANN_WIND NEUMANN_PRES MLC_LAT MLC_LON MLC_CLASS MLC_WIND MLC_PRES USA_GUST BOM_GUST BOM_GUST_PER REUNION_GUST REUNION_GUST_PER USA_SEAHGT USA_SEARAD_NE USA_SEARAD_SE USA_SEARAD_SW USA_SEARAD_NW STORM_SPEED STORM_DIR
1982095S11138 1982 25 SP EA DOMINIC 1982-04-04 12:00:00 NR -11.3000 138.300 main 180 180 O_________O___ jtwc_sh SH261982 -11.3000 138.300 25 -1 -11.3000 138.300 1 25 4 54
1982095S11138 1982 25 SP EA DOMINIC 1982-04-04 15:00:00 NR -11.1952 138.445 main 196 196 P_________P___ SH261982 -11.1950 138.460 27 -1 -11.1954 138.430 1 27 3 54
1982095S11138 1982 25 SP EA DOMINIC 1982-04-04 18:00:00 NR -11.1013 138.579 main 220 220 O_________P___ jtwc_sh SH261982 -11.1000 138.600 30 -1 -11.1025 138.558 1 30 4 71
1982095S11138 1982 25 SP EA DOMINIC 1982-04-04 21:00:00 NR -11.0715 138.806 25 1002 bom main 237 237 P_____O___P___ SH261982 -11.0275 138.708 32 -1 -11.4000 139.700 20 25 1002 2.00000 -11.0335 138.682 1 32 45 45 4 95
1982095S11138 1982 25 SP EA DOMINIC 1982-04-05 00:00:00 TS -11.1364 139.018 25 1000 bom main 256 250 O_____O___O_O_ jtwc_sh SH261982 -11.0000 138.800 35 0 -11.5000 139.600 20 25 1000 2.00000 -11.0000 138.800 2 35 -11.5000 139.600 TC 30 1000 45 45 4 118
1982095S11138 1982 25 SP EA DOMINIC 1982-04-05 03:00:00 TS -11.2343 139.122 30 998 bom main 259 254 P_____O___P_P_ SH261982 -11.0275 138.900 37 0 -11.6000 139.500 20 30 998 2.50000 -11.0115 138.911 2 37 -11.5450 139.423 TC 35 997 45 45 2 138
1982095S11138 1982 25 SP EA DOMINIC 1982-04-05 06:00:00 TS -11.2780 139.144 40 994 bom main 254 254 O_____O___P_O_ jtwc_sh SH261982 -11.1000 139.000 40 0 -11.5000 139.300 30 40 994 3.00000 -11.0675 139.015 2 40 -11.5000 139.300 TC 40 994 55 55 0 98
1982095S11138 1982 25 SP EA DOMINIC 1982-04-05 09:00:00 TS -11.2424 139.172 45 990 bom main 269 269 P_____O___P_P_ SH261982 -11.1775 139.107 42 0 -11.3000 139.200 30 45 990 3.00000 -11.1647 139.111 2 42 -11.3275 139.270 TC 42 992 64 64 1 76
1982095S11138 1982 25 SP EA DOMINIC 1982-04-05 12:00:00 TS -11.2500 139.250 45 990 bom main 279 269 O_____O___O_O_ jtwc_sh SH261982 -11.3000 139.200 45 0 -11.2000 139.300 30 45 990 3.00000 -11.3000 139.200 2 45 -11.2000 139.300 TC 45 990 64 64 2 145
1982095S11138 1982 25 SP EA DOMINIC 1982-04-05 15:00:00 TS -11.4135 139.296 50 988 bom main 269 259 P_____O___P_P_ SH261982 -11.4850 139.250 47 0 -11.4000 139.300 30 50 988 3.50000 -11.4641 139.282 2 47 -11.3050 139.350 TC 50 988 69 69 4 162
1982095S11138 1982 25 SP EA DOMINIC 1982-04-05 18:00:00 TS -11.5906 139.364 50 986 bom main 259 254 O_____O___P_O_ jtwc_sh SH261982 -11.7000 139.300 50 0 -11.5000 139.400 30 50 986 3.50000 -11.6625 139.358 2 50 -11.5000 139.400 TC 55 986 69 69 4 163
1982095S11138 1982 25 SP EA DOMINIC 1982-04-05 21:00:00 TS -11.7787 139.407 50 984 bom main 254 251 P_____O___P_P_ SH261982 -11.9000 139.400 52 0 -11.7000 139.400 30 50 984 3.50000 -11.8797 139.429 2 52 -11.6350 139.400 TC 57 984 69 69 4 167
1982095S11138 1982 25 SP EA DOMINIC 1982-04-06 00:00:00 TS -11.9500 139.450 55 982 bom main 241 232 O_____O___O_O_ jtwc_sh SH261982 -12.1000 139.500 55 0 -11.8000 139.400 30 55 982 4.00000 -12.1000 139.500 2 55 -11.8000 139.400 TC 60 982 75 75 4 169
1982095S11138 1982 25 SP EA DOMINIC 1982-04-06 03:00:00 TS -12.1798 139.487 55 980 bom main 232 218 P_____O___P_P_ SH261982 -12.3000 139.550 57 0 -12.1000 139.400 30 55 980 4.00000 -12.2919 139.571 2 56 -12.0275 139.428 TC 62 979 75 75 5 167
1982095S11138 1982 25 SP EA DOMINIC 1982-04-06 06:00:00 TS -12.3962 139.561 60 977 bom main 218 206 O_____O___P_O_ jtwc_sh SH261982 -12.5000 139.600 60 0 -12.3000 139.500 30 60 977 4.00000 -12.4850 139.643 2 57 -12.3000 139.500 TC 65 977 84 84 5 161
1982095S11138 1982 25 SP EA DOMINIC 1982-04-06 09:00:00 TS -12.6502 139.661 60 974 bom main 206 195 P_____O___P_P_ SH261982 -12.6925 139.693 60 0 -12.6000 139.600 30 60 974 4.00000 -12.6856 139.718 2 58 -12.6225 139.635 TC 67 974 84 84 6 155
1982095S11138 1982 25 SP EA DOMINIC 1982-04-06 12:00:00 TS -12.9000 139.800 65 972 bom main 195 184 O_____O___O_O_ jtwc_sh SH261982 -12.9000 139.800 60 0 -12.9000 139.800 40 65 972 4.50000 -12.9000 139.800 2 60 -12.9000 139.800 TC 70 972 89 89 5 148
1982095S11138 1982 25 SP EA DOMINIC 1982-04-06 15:00:00 TS -13.0686 139.930 70 968 bom main 184 173 P_____O___P_P_ SH261982 -13.1425 139.900 60 0 -13.0000 140.000 40 70 968 4.50000 -13.1395 139.861 2 61 -12.9925 139.958 TC 75 968 99 99 4 147
1982095S11138 1982 25 SP EA DOMINIC 1982-04-06 18:00:00 TS -13.2481 140.033 75 965 bom main 174 157 O_____O___P_O_ jtwc_sh SH261982 -13.4000 140.000 60 0 -13.1000 140.100 40 75 965 4.50000 -13.3923 139.933 2 62 -13.1000 140.100 TC 80 965 104 104 5 156
1982095S11138 1982 25 SP EA DOMINIC 1982-04-06 21:00:00 TS -13.5084 140.127 80 962 bom main 157 140 P_____O___P_P_ SH261982 -13.6500 140.085 62 0 -13.3000 140.200 40 80 962 5.00000 -13.6488 140.039 2 63 -13.4349 140.185 TC 82 962 110 110 6 161
1982095S11138 1982 25 SP EA DOMINIC 1982-04-07 00:00:00 TS -13.8500 140.250 80 960 bom main 130 119 O_____O___O_O_ jtwc_sh SH261982 -13.9000 140.200 65 1 -13.8000 140.300 40 80 960 5.00000 -13.9000 140.200 4 65 -13.8000 140.300 TC 85 960 110 110 7 154
1982095S11138 1982 25 SP EA DOMINIC 1982-04-07 03:00:00 TS -14.1108 140.423 85 958 bom main 120 89 P_____O___P_P_ SH261982 -14.1574 140.355 65 1 -14.1000 140.400 40 85 958 5.00000 -14.1483 140.418 4 66 -14.0375 140.520 TC 90 957 119 119 6 134
1982095S11138 1982 25 SP EA DOMINIC 1982-04-07 06:00:00 TS -14.2968 140.724 100 955 bom main 89 53 O_____O___P_O_ jtwc_sh SH261982 -14.4000 140.600 65 1 -14.2000 140.800 40 100 955 6.00000 -14.3873 140.695 4 67 -14.2000 140.800 TC 95 955 139 139 7 120
1982095S11138 1982 25 SP EA DOMINIC 1982-04-07 09:00:00 TS -14.4594 141.039 115 950 bom main 53 15 P_____O___P_P_ SH261982 -14.6150 140.962 67 1 -14.3000 141.100 40 115 950 6.50000 -14.6076 141.024 4 68 -14.3149 141.070 TC 97 952 159 159 7 115
1982095S11138 1982 25 SP EA DOMINIC 1982-04-07 12:00:00 TS -14.6000 141.400 115 950 bom main 15 0 O_____O___O_O_ jtwc_sh SH261982 -14.8000 141.400 70 1 -14.4000 141.400 40 115 950 6.50000 -14.8000 141.400 4 70 -14.4000 141.400 TC 100 950 159 159 8 109
1982095S11138 1982 25 SP EA DOMINIC 1982-04-07 15:00:00 TS -14.7346 141.845 85 970 bom main 0 0 P_____O___P_P_ SH261982 -14.9650 141.843 65 1 -14.5000 141.900 40 85 970 -14.9660 141.803 4 63 -14.5076 141.835 TC 80 965 119 119 9 106
1982095S11138 1982 25 SP EA DOMINIC 1982-04-07 18:00:00 TS -14.8506 142.287 60 980 bom main 0 0 O_____O___P_O_ jtwc_sh SH261982 -15.1000 142.300 60 0 -14.6000 142.300 30 60 980 -15.1025 142.248 4 57 -14.6000 142.300 TC 60 980 84 84 8 105
1982095S11138 1982 25 SP EA DOMINIC 1982-04-07 21:00:00 TS -14.9481 142.687 45 990 bom main 0 0 P_____O___P_P_ SH261982 -15.2074 142.743 52 0 -14.7000 142.600 30 45 990 -15.2128 142.718 4 51 -14.6723 142.685 TC 50 987 64 64 8 100
1982095S11138 1982 25 SP EA DOMINIC 1982-04-08 00:00:00 TS -15.0000 143.150 35 995 bom main 0 0 O_____O___O_O_ jtwc_sh SH261982 -15.3000 143.200 45 0 -14.7000 143.100 30 35 995 -15.3000 143.200 2 45 -14.7000 143.100 TC 40 995 49 49 9 95
1982095S11138 1982 25 SP EA DOMINIC 1982-04-08 03:00:00 TS -15.0345 143.644 25 997 bom main 0 0 P_____O___P_P_ SH261982 -15.4150 143.700 40 0 -14.7000 143.600 20 25 997 -15.3958 143.672 2 41 -14.6273 143.605 TC 37 996 45 45 10 92
1982095S11138 1982 25 SP EA DOMINIC 1982-04-08 06:00:00 TS -15.0418 144.187 25 998 bom main 0 0 O_____O___P_O_ jtwc_sh SH261982 -15.5000 144.200 35 0 -14.6000 144.200 20 25 998 -15.4673 144.150 2 37 -14.6000 144.200 TC 35 998 45 45 11 90
1982095S11138 1982 25 SP EA DOMINIC 1982-04-08 07:00:00 TS -15.0367 144.425 25 999 bom main 0 0 P_____O___P_P_ SH261982 -15.5166 144.356 34 0 -14.5000 144.600 20 25 999 -15.4841 144.309 2 36 -14.6462 144.434 TC 33 998 45 45 13 98
1982095S11138 1982 25 SP EA DOMINIC 1982-04-08 09:00:00 TS -15.1301 144.829 25 999 bom main 0 0 P_____O___P_P_ SH261982 -15.5299 144.658 32 -1 -14.7000 145.100 20 25 999 -15.5051 144.628 2 33 -14.7854 144.929 TC 30 1000 45 45 11 102
1982095S11138 1982 25 SP EA DOMINIC 1982-04-08 12:00:00 TS -15.2353 145.388 25 1002 bom main 11 11 O_____O_O_O_O_ jtwc_sh SH261982 -15.5000 145.100 30 -1 -15.0000 145.600 20 25 1002 2.00000 -15.0000 146.000 35 995 -15.5000 145.100 1 30 -15.0000 145.600 TC 25 1002 45 45 10 96
1982095S11138 1982 25 SP EA DOMINIC 1982-04-08 15:00:00 TS -15.2327 145.831 25 1001 bom main 44 44 P_____O_P_P_P_ SH261982 -15.4149 145.550 30 -1 -15.1000 146.000 20 25 1001 2.00000 -15.0046 146.258 36 993 -15.4428 145.558 1 30 -15.0871 146.003 TC 27 1001 45 45 8 86
1982095S11138 1982 25 SP EA DOMINIC 1982-04-08 18:00:00 TS -15.1790 146.212 25 1000 bom main 86 86 O_____O_P_P_O_ jtwc_sh SH261982 -15.3000 146.000 30 -1 -15.1000 146.300 20 25 1000 2.00000 -15.0073 146.533 37 992 -15.3445 146.008 1 30 -15.1000 146.300 TC 30 1000 45 45 8 80
1982095S11138 1982 25 SP EA DOMINIC 1982-04-08 21:00:00 TS -15.1005 146.596 25 1000 bom main 130 130 P_____O_P_P_P_ SH261982 -15.1999 146.450 30 -1 -15.0000 146.600 20 25 1000 2.00000 -15.0064 146.841 38 991 -15.2240 146.454 1 30 -15.0724 146.635 TC 30 1000 45 45 8 80
1982095S11138 1982 25 SP EA DOMINIC 1982-04-09 00:00:00 TS -15.0400 147.000 25 1000 bom main 175 175 O_____O_O_O_O_ jtwc_sh SH261982 -15.1000 146.900 30 -1 -15.0000 147.000 20 25 1000 2.00000 -15.0000 147.200 40 990 -15.1000 146.900 1 30 -15.0000 147.000 TC 30 1000 45 45 8 80
1982095S11138 1982 25 SP EA DOMINIC 1982-04-09 03:00:00 TS -14.9579 147.453 25 1000 bom main 227 227 P_____O_P_P_P_ SH261982 -14.9999 147.350 30 -1 -14.9000 147.500 20 25 1000 2.00000 -14.9865 147.619 40 990 -14.9958 147.362 1 31 -14.9075 147.435 TC 30 999 45 45 9 79
1982095S11138 1982 25 SP EA DOMINIC 1982-04-09 06:00:00 TS -14.8716 147.900 30 999 bom main 272 272 O_____O_P_P_O_ jtwc_sh SH261982 -14.9000 147.800 30 -1 -14.8000 147.900 20 30 999 2.50000 -14.9654 148.078 40 990 -14.8924 147.822 1 32 -14.8000 147.900 TC 30 999 45 45 9 79
1982095S11138 1982 25 SP EA DOMINIC 1982-04-09 09:00:00 TS -14.7887 148.362 main 327 327 P_____P_P_P_P_ SH261982 -14.8000 148.257 32 -1 -14.7069 148.360 20 30 998 -14.9365 148.547 40 990 -14.7927 148.272 1 33 -14.7075 148.372 TC 32 998 9 79
1982095S11138 1982 25 SP EA DOMINIC 1982-04-09 12:00:00 TS -14.7000 148.800 30 998 bom main 371 371 O_____O_O_O_O_ jtwc_sh SH261982 -14.7000 148.700 35 0 -14.6000 148.800 20 30 998 2.50000 -14.9000 149.000 40 990 -14.7000 148.700 2 35 -14.6000 148.800 TC 35 998 45 45 8 76
1982095S11138 1982 25 SP EA DOMINIC 1982-04-09 15:00:00 TS -14.5948 149.181 main 415 415 P_____P_P_P_P_ SH261982 -14.5924 149.115 37 0 -14.4574 149.122 20 30 998 -14.8531 149.437 40 990 -14.6135 149.109 2 36 -14.4574 149.122 TC 35 998 7 73
1982095S11138 1982 25 SP EA DOMINIC 1982-04-09 18:00:00 TS -14.4870 149.528 30 998 bom main 432 416 O_____O_P_P_O_ jtwc_sh SH261982 -14.5000 149.500 40 0 -14.3000 149.400 20 30 998 2.50000 -14.8001 149.848 40 990 -14.5347 149.495 2 37 -14.3000 149.400 TC 35 998 45 45 7 72
1982095S11138 1982 25 SP EA DOMINIC 1982-04-09 21:00:00 TS -14.3846 149.864 main 415 403 P_____P_P_P_P_ SH261982 -14.4424 149.865 40 0 -14.1349 149.693 20 30 997 -14.7470 150.209 40 990 -14.4636 149.859 2 38 -14.1349 149.693 TC 35 997 7 73
1982095S11138 1982 25 SP EA DOMINIC 1982-04-10 00:00:00 TS -14.3000 150.180 30 997 bom main 403 391 O_____O_O_O_O_ jtwc_sh SH261982 -14.4000 150.200 40 0 -14.0000 150.000 20 30 997 2.50000 -14.7000 150.500 40 990 -14.4000 150.200 2 40 -14.0000 150.000 TC 35 997 45 45 6 77
1982095S11138 1982 25 SP EA DOMINIC 1982-04-10 03:00:00 TS -14.2422 150.485 main 392 392 P_____P_P_P_P_ SH261982 -14.3499 150.507 40 0 -13.9275 150.342 20 30 996 -14.6715 150.697 38 991 -14.3345 150.534 2 40 -13.9275 150.342 TC 35 996 6 81
1982095S11138 1982 25 SP EA DOMINIC 1982-04-10 06:00:00 TS -14.2054 150.774 30 996 bom main 394 394 O_____O_P_P_O_ jtwc_sh SH261982 -14.3000 150.800 40 0 -13.9000 150.700 20 30 996 2.50000 -14.6496 150.825 37 992 -14.2773 150.845 2 40 -13.9000 150.700 TC 35 996 45 45 6 83
1982095S11138 1982 25 SP EA DOMINIC 1982-04-10 09:00:00 TS -14.1714 151.054 main 399 399 P_____P_P_P_P_ SH261982 -14.2425 151.108 40 0 -13.8775 151.058 20 30 996 -14.6279 150.916 36 993 -14.2315 151.134 2 40 -13.8775 151.058 TC 35 996 5 85
1982095S11138 1982 25 SP EA DOMINIC 1982-04-10 12:00:00 TS -14.1600 151.320 30 997 bom main 403 403 O_____O_O_O_O_ jtwc_sh SH261982 -14.2000 151.400 40 0 -13.9000 151.400 20 30 997 2.50000 -14.6000 151.000 35 995 -14.2000 151.400 2 40 -13.9000 151.400 TC 35 997 45 45 5 91
1982095S11138 1982 25 SP EA DOMINIC 1982-04-10 15:00:00 TS -14.1777 151.577 main 413 413 P_____P_P_P_P_ SH261982 -14.1925 151.665 40 0 -13.9850 151.737 20 30 997 -14.5488 151.088 33 995 -14.1774 151.659 2 40 -13.9850 151.737 TC 35 997 5 96
1982095S11138 1982 25 SP EA DOMINIC 1982-04-10 18:00:00 TS -14.2124 151.796 30 997 bom main 420 420 O_____O_P_P_O_ jtwc_sh SH261982 -14.2000 151.900 40 0 -14.1000 152.000 20 30 997 2.50000 -14.4921 151.183 32 996 -14.1699 151.895 2 40 -14.1000 152.000 TC 35 997 45 45 4 100
1982095S11138 1982 25 SP EA DOMINIC 1982-04-10 21:00:00 TS -14.2448 151.960 main 427 427 P_____P_P_P_P_ SH261982 -14.1925 152.108 40 0 -14.2074 152.138 20 30 998 -14.4394 151.310 31 996 -14.1774 152.109 2 40 -14.2074 152.138 TC 32 998 3 103
1982095S11138 1982 25 SP EA DOMINIC 1982-04-11 00:00:00 TS -14.2800 152.100 30 1000 bom main 441 441 O_____O_O_O_O_ jtwc_sh SH261982 -14.2000 152.300 40 0 -14.3000 152.200 20 30 1000 2.50000 -14.4000 151.500 30 997 -14.2000 152.300 2 40 -14.3000 152.200 TC 30 1000 45 45 3 101
1982095S11138 1982 25 SP EA DOMINIC 1982-04-11 03:00:00 TS -14.3047 152.273 main 449 449 P_____P_P_P_P_ SH261982 -14.2425 152.515 40 0 -14.3500 152.250 20 30 1000 -14.3578 151.850 30 997 -14.2234 152.500 2 40 -14.3500 152.250 TC 30 1000 3 100
1982095S11138 1982 25 SP EA DOMINIC 1982-04-11 06:00:00 TS -14.3392 152.445 30 1000 bom main 453 453 O_____O_P_P_O_ jtwc_sh SH261982 -14.3000 152.700 40 0 -14.4000 152.300 20 30 1000 2.50000 -14.3334 152.253 30 997 -14.2625 152.675 2 40 -14.4000 152.300 TC 30 1000 45 45 3 106
1982095S11138 1982 25 SP EA DOMINIC 1982-04-11 09:00:00 TS -14.3980 152.616 main 472 472 P_____P_P_P_P_ SH261982 -14.3425 152.823 40 0 -14.4925 152.407 20 30 1000 -14.3422 152.628 30 997 -14.3203 152.812 2 40 -14.4925 152.407 TC 30 1000 3 116
1982095S11138 1982 25 SP EA DOMINIC 1982-04-11 12:00:00 TS -14.4800 152.740 30 1000 bom main 487 487 O_____O_O_O_O_ jtwc_sh SH261982 -14.4000 152.900 40 0 -14.6000 152.500 20 30 1000 2.50000 -14.4000 152.900 30 997 -14.4000 152.900 2 40 -14.6000 152.500 TC 30 1000 45 45 3 137
1982095S11138 1982 25 SP EA DOMINIC 1982-04-11 15:00:00 TS -14.5825 152.792 main 502 502 P_____P_P_P_P_ SH261982 -14.4850 152.980 40 0 -14.7000 152.530 20 30 1000 -14.5325 152.965 30 997 -14.4952 152.954 2 40 -14.7000 152.530 TC 27 1000 2 172
1982095S11138 1982 25 SP EA DOMINIC 1982-04-11 18:00:00 TS -14.7049 152.775 30 1001 bom main 512 512 O_____O_P_P_O_ jtwc_sh SH261982 -14.6000 153.000 40 0 -14.8000 152.500 20 30 1001 2.50000 -14.7122 152.920 30 997 -14.6123 152.955 2 40 -14.8000 152.500 TC 25 1001 45 45 3 200
1982095S11138 1982 25 SP EA DOMINIC 1982-04-11 21:00:00 TS -14.8403 152.694 main 517 517 P_____P_P_P_P_ SH261982 -14.7425 152.938 40 0 -14.9000 152.408 20 27 1001 -14.9108 152.815 30 997 -14.7483 152.904 2 40 -14.9000 152.408 TC 25 1001 3 214
1982095S11138 1982 25 SP EA DOMINIC 1982-04-12 00:00:00 TS -14.9800 152.580 25 1002 bom main 534 529 O_____O_O_O_O_ jtwc_sh SH261982 -14.9000 152.800 40 0 -15.0000 152.300 20 25 1002 2.00000 -15.1000 152.700 30 997 -14.9000 152.800 2 40 -15.0000 152.300 TC 25 1002 45 45 3 218
1982095S11138 1982 25 SP EA DOMINIC 1982-04-12 03:00:00 TS -15.1006 152.485 main 540 536 P_____P_P_P_P_ SH261982 -15.0425 152.615 40 0 -15.0925 152.250 20 25 1001 -15.2272 152.658 31 996 -15.0485 152.654 2 38 -15.0925 152.250 TC 25 1001 3 218
1982095S11138 1982 25 SP EA DOMINIC 1982-04-12 06:00:00 TS -15.2310 152.375 25 1001 bom main 547 547 O_____O_P_P_O_ jtwc_sh SH261982 -15.2000 152.400 40 0 -15.2000 152.200 20 25 1001 2.00000 -15.3425 152.615 32 996 -15.2126 152.460 2 37 -15.2000 152.200 TC 25 1001 45 45 4 220
1982095S11138 1982 25 SP EA DOMINIC 1982-04-12 09:00:00 TS -15.3764 152.249 main 561 561 P_____P_P_P_P_ SH261982 -15.3850 152.200 37 0 -15.3200 152.122 20 25 1001 -15.4615 152.564 33 995 -15.3954 152.236 2 36 -15.3200 152.122 TC 25 1001 4 219
1982095S11138 1982 25 SP EA DOMINIC 1982-04-12 12:00:00 TS -15.5600 152.100 25 1001 bom main 578 575 O_____O_O_O_O_ jtwc_sh SH261982 -15.6000 152.000 35 0 -15.5000 152.000 20 25 1001 2.00000 -15.6000 152.500 35 995 -15.6000 152.000 2 35 -15.5000 152.000 TC 25 1001 45 45 5 216
1982095S11138 1982 25 SP EA DOMINIC 1982-04-12 15:00:00 TS -15.7898 151.938 main 593 560 P_____P_P_P_P_ SH261982 -15.8425 151.807 35 0 -15.7624 151.837 20 25 1002 -15.7694 152.418 35 995 -15.8121 151.790 2 33 -15.7624 151.837 TC 25 1002 6 217
1982095S11138 1982 25 SP EA DOMINIC 1982-04-12 18:00:00 TS -16.0676 151.708 25 1003 bom main 560 515 O_____O_P_P_O_ jtwc_sh SH261982 -16.1000 151.600 35 0 -16.1000 151.600 20 25 1003 2.00000 -15.9651 152.320 35 995 -16.0474 151.572 2 32 -16.1000 151.600 TC 25 1003 45 45 8 219
1982095S11138 1982 25 SP EA DOMINIC 1982-04-12 21:00:00 TS -16.3833 151.431 main 515 470 P_____P_P_P_P_ SH261982 -16.3425 151.357 32 -1 -16.4922 151.317 20 25 1003 -16.1782 152.213 35 995 -16.3090 151.343 2 31 -16.4922 151.317 TC 22 1003 9 223
1982095S11138 1982 25 SP EA DOMINIC 1982-04-13 00:00:00 TS -16.7294 151.065 25 1004 bom main 470 405 O_____O_O_O_O_ jtwc_sh SH261982 -16.6000 151.100 30 -1 -16.9000 150.900 20 25 1004 1.50000 -16.4000 152.100 35 995 -16.6000 151.100 1 30 -16.9000 150.900 TC 20 1004 45 45 11 227
1982095S11138 1982 25 SP EA DOMINIC 1982-04-13 03:00:00 TS -17.1397 150.585 main 405 347 P_____P___P_P_ SH261982 -16.8774 150.857 30 -1 -17.3897 150.323 20 25 1004 -16.9218 150.841 1 28 -17.3699 150.319 TC 20 1004 12 234
1982095S11138 1982 25 SP EA DOMINIC 1982-04-13 06:00:00 TS -17.4431 150.022 25 1004 bom main 341 300 O_____O___P_O_ jtwc_sh SH261982 -17.2000 150.600 30 -1 -17.6000 149.600 20 25 1004 1.50000 -17.2679 150.569 1 27 -17.6000 149.600 TC 20 1004 45 45 13 258
1982095S11138 1982 25 SP EA DOMINIC 1982-04-13 09:00:00 TS -17.4064 149.297 25 1005 bom main 300 257 P_____O___P_P_ SH261982 -17.5826 150.310 27 -1 -17.3000 148.800 20 25 1005 1.50000 -17.6300 150.287 1 26 -17.3128 148.791 TC 17 1005 45 45 16 285
1982095S11138 1982 25 SP EA DOMINIC 1982-04-13 12:00:00 TS -17.0400 148.400 25 1006 bom main 248 163 O_____O___O_O_ jtwc_sh SH261982 -18.0000 150.000 25 -1 -16.8000 148.000 20 25 1006 1.50000 -18.0000 150.000 1 25 -16.8000 148.000 TC 15 1006 45 45 22 298
1982095S11138 1982 25 SP EA DOMINIC 1982-04-13 15:00:00 TS -16.3849 147.266 25 1006 bom main 163 139 ______O_____P_ SH261982 -1 -16.4000 147.200 20 25 1006 1.50000 1 -16.3698 147.333 TC 15 1006 45 45 19 304
1982095S11138 1982 25 SP EA DOMINIC 1982-04-13 18:00:00 TS -16.0000 146.800 25 1006 bom main 139 112 ______O_____O_ -1 -16.0000 146.800 20 25 1006 1.50000 1 -16.0000 146.800 TC 15 1006 45 45 10 307
1982095S11138 1982 25 SP EA DOMINIC 1982-04-13 21:00:00 TS -15.7771 146.440 25 1006 bom main 101 82 ______O_____P_ -1 -15.8000 146.400 20 25 1006 1.50000 1 -15.7543 146.480 TC 15 1006 45 45 8 301
1982095S11138 1982 25 SP EA DOMINIC 1982-04-14 00:00:00 TS -15.6000 146.100 25 1006 bom main 82 0 ______O_____O_ -1 -15.6000 146.100 20 25 1006 1.50000 -15.6000 146.100 TC 15 1006 45 45 11 297
1982095S11138 1982 25 SP EA DOMINIC 1982-04-14 03:00:00 TS -15.2565 145.401 20 1008 bom main 0 0 ______O_____P_ -1 -15.1000 145.400 20 20 1008 1.00000 -15.4912 145.402 TC 15 1007 45 45 16 277
1982095S11138 1982 25 SP EA DOMINIC 1982-04-14 06:00:00 TS -15.4000 144.500 20 1008 bom main 0 0 ______O_____O_ -1 -15.4000 144.500 20 20 1008 -15.4000 144.500 TC 15 1008 45 45 16 246
1982095S11138 1982 25 SP EA DOMINIC 1982-04-14 09:00:00 NR -15.9000 143.900 20 1010 bom main 0 ______O_______ -1 -15.9000 143.900 20 20 1010 TC 45 45 15 229

デジタル台風データ・検索

IBTrACS Databaseについて

本データベースは、米国NOAAが公開する1842年以降の世界の熱帯低気圧のベストトラックデータアーカイブInternational Best Track Archive for Climate Stewardship (IBTrACS)を、ウェブで閲覧しやすい形式に変換したものです。

最終更新日:2021-12-01